Portada
METAR-TAF:

METAR-TAF

Aeroports :

Diego Garcia, Territori Britànic de l'Oceà Índic

latitud: 07-18S, longitud: 072-24E, altitud: 1 m

Observació

L'informe es va fer fa 42 minuts, a les 11:55 UTC
Vent 3 kt del Sud-Est
Temperatura 29°C
Humitat 79%
Pressió 1011 hPa
Visibilitat 10 km o més
Escasses núvols a una alçada de 2000 ft
Escasses núvols a una alçada de 5000 ft
Cel ennuvolat a una alçada de 22000 ft

METAR: FJDG 251155Z 13003KT 9999 FEW020 FEW050 BKN220 29/25 A2984 RMK SLP102 60002 70002 8/802 T02920246 10340 20292 55000

Hora: 18:37 (12:37 UTC)

Pronòstic

L'informe es va fer fa 3 hores i 37 minuts, a les 09:00 UTC
Pronòstic vàlid del 25 a les 09 UTC al 26 a les 15 UTC
Vent 9 kt del Sud/Sud-Est
Visibilitat 10 km o més
Escasses núvols a una alçada de 2000 ft
Núvols disperses a una alçada de 25000 ft

TAF: FJDG 250900Z 2509/2615 15009KT 9999 FEW020 SCT250 QNH2980INS TX33/2509Z TN27/2522Z

Observacions i pronòstics meteorològics de més de 4000 aeroports (METAR i TAF).

Les estacions disponibles són els punts grocs i vermells al mapa.

Posi el ratolí al punt desitjat per veure el nom de l'estació.

Feu clic per veure les observacions i els pronòstics meteorològics.

Per canviar el mapa: feu clic els botons verds amb una creu de color negre per apropar; al botó verd amb un guió per allunyar la imatge; o en les fletxes verdes per a mapes adjacents.


METAR-TAF: